Time;durP1;ratioP1;P1;durP2;ratioP2;P2;SDS_P1;SDS_P2;PMS_P1;PMS_P2;Temp;Humidity;BMP_temperature;BMP_pressure;BME280_temperature;BME280_humidity;BME280_pressure;Samples;Min_cycle;Max_cycle;Signal;HPM_P1;HPM_P2
2022/05/25 00:02:19;;;;;;;;;;;14.40;71.60;;;;;;5063501;28;20045;-71
2022/05/25 00:04:46;;;;;;;0.90;0.30;;;14.40;71.70;;;;;;5075359;28;20338;-71
2022/05/25 00:07:14;;;;;;;0.80;0.40;;;14.40;71.80;;;;;;5068586;28;20043;-71
2022/05/25 00:09:41;;;;;;;1.42;0.43;;;14.40;71.80;;;;;;5070269;28;20586;-72
2022/05/25 00:12:08;;;;;;;0.63;0.35;;;14.30;71.90;;;;;;5071150;28;20068;-71
2022/05/25 00:14:37;;;;;;;2.53;0.43;;;14.30;72.00;;;;;;5080768;28;20049;-71
2022/05/25 00:17:05;;;;;;;1.95;0.60;;;14.20;71.90;;;;;;5077586;28;20050;-72
2022/05/25 00:22:16;;;;;;;2.83;0.75;;;14.20;72.10;;;;;;5069821;28;20491;-70
2022/05/25 00:24:44;;;;;;;1.10;0.50;;;14.20;72.30;;;;;;5067685;28;20047;-70
2022/05/25 00:27:11;;;;;;;3.22;0.45;;;14.20;72.30;;;;;;5065714;28;20052;-70
2022/05/25 00:29:39;;;;;;;3.85;0.30;;;14.20;72.10;;;;;;5086464;28;20048;-68
2022/05/25 00:32:08;;;;;;;2.38;0.47;;;14.20;71.80;;;;;;5069509;28;20043;-70
2022/05/25 00:34:35;;;;;;;1.55;0.32;;;14.10;71.70;;;;;;5068203;28;20044;-69
2022/05/25 00:37:02;;;;;;;0.47;0.20;;;14.10;71.90;;;;;;5063165;28;20044;-69
2022/05/25 00:39:29;;;;;;;0.50;0.30;;;14.10;72.00;;;;;;5069521;28;20082;-71
2022/05/25 00:41:56;;;;;;;2.78;0.57;;;14.10;72.10;;;;;;5067021;28;20498;-69
2022/05/25 00:44:24;;;;;;;3.13;0.32;;;14.10;72.20;;;;;;5061910;28;20048;-71
2022/05/25 00:46:52;;;;;;;0.82;0.38;;;14.00;72.40;;;;;;5060603;28;20145;-70
2022/05/25 00:49:23;;;;;;;0.88;0.30;;;13.90;72.40;;;;;;5069487;28;20048;-69
2022/05/25 00:51:54;;;;;;;2.63;0.40;;;13.90;72.60;;;;;;5065599;28;20052;-71
2022/05/25 00:54:24;;;;;;;0.57;0.35;;;13.90;72.60;;;;;;5071316;28;20078;-70
2022/05/25 00:56:53;;;;;;;1.10;0.40;;;13.90;72.60;;;;;;5066209;28;20500;-73
2022/05/25 00:59:25;;;;;;;1.95;0.40;;;13.90;72.60;;;;;;5073351;28;20554;-72
2022/05/25 01:01:55;;;;;;;1.33;0.50;;;13.90;73.00;;;;;;5071477;28;20075;-72
2022/05/25 01:04:22;;;;;;;0.60;0.40;;;13.80;73.20;;;;;;5070928;28;20407;-71
2022/05/25 01:07:13;;;;;;;2.40;0.32;;;13.80;73.40;;;;;;5058959;28;20044;-70
2022/05/25 01:09:48;;;;;;;2.72;0.43;;;13.80;73.50;;;;;;5069984;28;20725;-70
2022/05/25 01:12:37;;;;;;;1.27;0.55;;;13.80;73.60;;;;;;5068399;28;20044;-75
2022/05/25 01:15:14;;;;;;;1.42;0.50;;;13.80;73.40;;;;;;5079508;28;20393;-68
2022/05/25 01:17:51;;;;;;;0.80;0.60;;;13.90;73.30;;;;;;5076262;28;20488;-70
2022/05/25 01:20:27;;;;;;;3.70;0.50;;;13.80;73.10;;;;;;5061391;28;20428;-70
2022/05/25 01:23:26;;;;;;;1.80;0.60;;;13.80;73.20;;;;;;5077343;28;20044;-69
2022/05/25 01:26:37;;;;;;;1.13;0.50;;;13.80;73.40;;;;;;5074654;28;20068;-69
2022/05/25 01:29:13;;;;;;;2.95;0.80;;;13.80;73.50;;;;;;5073835;28;20556;-71
2022/05/25 01:31:49;;;;;;;2.28;0.50;;;13.70;73.50;;;;;;5078138;28;20089;-71
2022/05/25 01:34:24;;;;;;;1.65;0.55;;;13.70;73.60;;;;;;5074436;28;20046;-72
2022/05/25 01:36:59;;;;;;;0.82;0.38;;;13.70;73.70;;;;;;5076792;28;20463;-70
2022/05/25 01:39:30;;;;;;;0.75;0.32;;;13.70;73.80;;;;;;5076509;28;20102;-70
2022/05/25 01:42:01;;;;;;;1.65;0.65;;;13.70;73.50;;;;;;5075634;28;20058;-70
2022/05/25 01:44:32;;;;;;;0.85;0.40;;;13.60;73.60;;;;;;5077525;28;20068;-71
2022/05/25 01:47:05;;;;;;;0.50;0.30;;;13.70;73.60;;;;;;5075990;28;20098;-70
2022/05/25 01:49:39;;;;;;;0.85;0.43;;;13.60;73.50;;;;;;5075873;28;20049;-69
2022/05/25 01:52:10;;;;;;;0.77;0.40;;;13.60;73.30;;;;;;5076356;28;20067;-69
2022/05/25 01:54:42;;;;;;;1.02;0.50;;;13.50;73.50;;;;;;5066434;28;20517;-68
2022/05/25 01:57:11;;;;;;;3.28;0.50;;;13.60;73.50;;;;;;5062797;28;20043;-69
2022/05/25 01:59:38;;;;;;;0.70;0.35;;;13.50;73.50;;;;;;5068241;28;20325;-72
2022/05/25 02:04:56;;;;;;;0.32;0.30;;;13.30;73.70;;;;;;5065400;28;20075;-68
2022/05/25 02:07:34;;;;;;;0.30;0.20;;;13.30;73.70;;;;;;5063841;28;20134;-69
2022/05/25 02:10:33;;;;;;;1.45;0.40;;;13.30;73.80;;;;;;5064512;28;20044;-70
2022/05/25 02:13:18;;;;;;;0.30;0.20;;;13.30;73.80;;;;;;5067454;28;20119;-69
2022/05/25 02:15:58;;;;;;;1.42;0.63;;;13.20;73.90;;;;;;5071276;28;20740;-70
2022/05/25 02:18:37;;;;;;;1.35;0.50;;;13.20;74.00;;;;;;5074290;28;20076;-71
2022/05/25 02:21:10;;;;;;;1.70;0.60;;;13.20;74.20;;;;;;5067481;28;20043;-69
2022/05/25 02:23:47;;;;;;;3.15;0.80;;;13.20;74.30;;;;;;5066642;28;20068;-71
2022/05/25 02:26:21;;;;;;;2.15;0.70;;;13.20;74.50;;;;;;5066452;28;20068;-70
2022/05/25 02:28:54;;;;;;;0.90;0.40;;;13.20;74.60;;;;;;5068252;28;20057;-69
2022/05/25 02:31:26;;;;;;;2.42;0.60;;;13.20;74.70;;;;;;5065416;28;20433;-71
2022/05/25 02:33:58;;;;;;;2.45;0.60;;;13.20;74.70;;;;;;5065888;28;20126;-73
2022/05/25 02:36:25;;;;;;;1.92;0.40;;;13.20;74.80;;;;;;5066442;28;20119;-70
2022/05/25 02:38:53;;;;;;;0.73;0.30;;;13.10;74.80;;;;;;5073070;28;20559;-70
2022/05/25 02:41:27;;;;;;;1.65;0.47;;;13.10;74.90;;;;;;5063570;28;20566;-74
2022/05/25 02:43:55;;;;;;;0.70;0.30;;;13.10;74.80;;;;;;5078438;28;20414;-72
2022/05/25 02:46:21;;;;;;;2.13;0.43;;;13.10;74.90;;;;;;5074778;28;20044;-71
2022/05/25 02:48:49;;;;;;;2.03;0.63;;;13.10;74.70;;;;;;5073900;28;20125;-69
2022/05/25 02:51:17;;;;;;;2.53;0.60;;;13.10;74.70;;;;;;5076378;28;20403;-69
2022/05/25 02:53:44;;;;;;;2.22;0.50;;;13.20;74.70;;;;;;5083460;28;20074;-70
2022/05/25 02:56:11;;;;;;;1.02;0.40;;;13.10;74.60;;;;;;5080084;28;20546;-70
2022/05/25 02:58:38;;;;;;;3.80;0.80;;;13.10;74.70;;;;;;5078754;28;20051;-71
2022/05/25 03:01:06;;;;;;;2.42;0.70;;;13.00;74.70;;;;;;5076888;28;20068;-71
2022/05/25 03:03:33;;;;;;;0.85;0.35;;;13.10;74.60;;;;;;5080195;28;20051;-68
2022/05/25 03:06:00;;;;;;;1.85;0.75;;;13.00;74.60;;;;;;5076134;28;20127;-69
2022/05/25 03:08:29;;;;;;;1.38;0.50;;;13.00;74.60;;;;;;5078873;28;20543;-70
2022/05/25 03:10:56;;;;;;;1.92;0.65;;;12.90;74.70;;;;;;5080244;28;20040;-70
2022/05/25 03:13:23;;;;;;;1.88;0.60;;;12.90;74.80;;;;;;5080780;28;20071;-72
2022/05/25 03:15:50;;;;;;;0.73;0.32;;;12.80;75.00;;;;;;5080085;28;20440;-69
2022/05/25 03:18:17;;;;;;;1.23;0.77;;;12.80;75.00;;;;;;5079149;28;20060;-69
2022/05/25 03:20:44;;;;;;;2.30;0.50;;;12.70;75.10;;;;;;5080115;28;20056;-70
2022/05/25 03:23:12;;;;;;;1.27;0.80;;;12.70;75.20;;;;;;5079425;28;20054;-67
2022/05/25 03:25:43;;;;;;;4.50;0.70;;;12.60;75.30;;;;;;5081053;28;20443;-70
2022/05/25 03:28:10;;;;;;;1.42;0.75;;;12.60;75.40;;;;;;5077688;28;20052;-71
2022/05/25 03:30:37;;;;;;;1.98;0.60;;;12.60;75.40;;;;;;5078476;28;20568;-68
2022/05/25 03:33:04;;;;;;;1.88;0.50;;;12.60;75.60;;;;;;5080199;28;20496;-69
2022/05/25 03:35:31;;;;;;;2.25;0.75;;;12.60;75.50;;;;;;5077473;28;20040;-71
2022/05/25 03:37:58;;;;;;;0.60;0.30;;;12.60;75.40;;;;;;5082479;28;20076;-72
2022/05/25 03:40:25;;;;;;;1.90;0.60;;;12.50;75.30;;;;;;5081271;28;20583;-69
2022/05/25 03:42:54;;;;;;;3.72;0.52;;;12.40;75.50;;;;;;5079997;28;20090;-68
2022/05/25 03:45:21;;;;;;;2.28;0.70;;;12.40;75.60;;;;;;5081642;28;20040;-72
2022/05/25 03:47:48;;;;;;;1.17;0.50;;;12.40;75.60;;;;;;5080112;28;20052;-69
2022/05/25 03:50:18;;;;;;;2.47;0.63;;;12.40;75.50;;;;;;5083559;28;20040;-71
2022/05/25 03:52:45;;;;;;;1.58;0.57;;;12.40;75.60;;;;;;5081621;28;20055;-68
2022/05/25 03:55:12;;;;;;;1.08;0.63;;;12.40;75.70;;;;;;5072238;28;20050;-68
2022/05/25 03:57:39;;;;;;;2.42;0.63;;;12.30;75.70;;;;;;5082376;28;20041;-69
2022/05/25 04:00:10;;;;;;;4.35;0.70;;;12.40;75.60;;;;;;5074250;28;20095;-73
2022/05/25 04:02:37;;;;;;;1.35;0.70;;;12.30;75.70;;;;;;5080528;28;20158;-68
2022/05/25 04:05:11;;;;;;;1.60;0.63;;;12.30;75.80;;;;;;5080961;28;20053;-69
2022/05/25 04:07:40;;;;;;;1.65;0.65;;;12.20;76.00;;;;;;5081704;28;20385;-70
2022/05/25 04:10:11;;;;;;;3.40;1.80;;;12.20;76.00;;;;;;5080811;28;20439;-72
2022/05/25 04:12:38;;;;;;;4.93;1.60;;;12.20;76.10;;;;;;5080331;28;20419;-74
2022/05/25 04:15:06;;;;;;;1.77;0.57;;;12.30;76.10;;;;;;5082550;28;20481;-70
2022/05/25 04:17:35;;;;;;;3.63;0.68;;;12.20;76.10;;;;;;5076061;28;20036;-71
2022/05/25 04:20:02;;;;;;;0.82;0.50;;;12.20;76.10;;;;;;5078965;28;20048;-68
2022/05/25 04:22:32;;;;;;;1.48;0.40;;;12.30;76.10;;;;;;5081465;28;20442;-71
2022/05/25 04:25:01;;;;;;;0.85;0.50;;;12.30;76.00;;;;;;5080208;28;20036;-70
2022/05/25 04:27:29;;;;;;;2.88;0.75;;;12.30;76.00;;;;;;5078037;28;20569;-72
2022/05/25 04:29:56;;;;;;;3.13;0.52;;;12.20;76.00;;;;;;5080351;28;20531;-70
2022/05/25 04:32:23;;;;;;;2.15;0.75;;;12.20;76.20;;;;;;5079060;28;20036;-73
2022/05/25 04:34:51;;;;;;;1.70;0.65;;;12.30;76.00;;;;;;5079576;28;20066;-70
2022/05/25 04:40:02;;;;;;;2.63;0.43;;;12.30;76.00;;;;;;5078068;28;20044;-72
2022/05/25 04:42:29;;;;;;;1.92;0.60;;;12.30;75.90;;;;;;5055743;28;20068;-68
2022/05/25 04:45:00;;;;;;;1.10;0.50;;;12.40;75.90;;;;;;5057655;28;20520;-70
2022/05/25 04:47:29;;;;;;;2.53;0.63;;;12.30;75.90;;;;;;5078948;28;20105;-68
2022/05/25 04:49:58;;;;;;;2.95;0.65;;;12.40;75.70;;;;;;5076571;28;20098;-70
2022/05/25 04:52:25;;;;;;;1.10;0.52;;;12.40;75.50;;;;;;5079137;28;20437;-73
2022/05/25 04:54:52;;;;;;;1.75;0.55;;;12.50;75.40;;;;;;5076899;28;20116;-73
2022/05/25 04:57:23;;;;;;;0.77;0.55;;;12.60;75.40;;;;;;5078840;28;20075;-74
2022/05/25 04:59:52;;;;;;;2.80;0.70;;;12.60;75.30;;;;;;5078184;28;20420;-69
2022/05/25 05:02:19;;;;;;;1.52;0.60;;;12.60;75.50;;;;;;5073331;28;20068;-69
2022/05/25 05:04:46;;;;;;;1.55;0.50;;;12.50;75.60;;;;;;5073897;28;20646;-70
2022/05/25 05:07:15;;;;;;;0.63;0.38;;;12.50;75.80;;;;;;5074566;28;20051;-72
2022/05/25 05:09:45;;;;;;;3.97;0.60;;;12.50;75.90;;;;;;5076704;28;20078;-70
2022/05/25 05:12:13;;;;;;;1.55;0.70;;;12.50;76.00;;;;;;5076047;28;20050;-70
2022/05/25 05:14:42;;;;;;;1.70;0.70;;;12.50;75.80;;;;;;5078744;28;20036;-72
2022/05/25 05:17:09;;;;;;;2.85;0.50;;;12.50;75.70;;;;;;5080332;28;20055;-73
2022/05/25 05:19:53;;;;;;;1.77;0.80;;;12.60;75.70;;;;;;5076542;28;20102;-74
2022/05/25 05:22:23;;;;;;;1.17;0.70;;;12.60;75.90;;;;;;5076049;28;20911;-72
2022/05/25 05:24:50;;;;;;;1.88;0.93;;;12.60;75.90;;;;;;5076361;28;20090;-72
2022/05/25 05:27:17;;;;;;;1.33;0.50;;;12.60;75.90;;;;;;5078478;28;20068;-73
2022/05/25 05:29:44;;;;;;;2.08;0.70;;;12.60;75.90;;;;;;5077952;28;20090;-69
2022/05/25 05:32:11;;;;;;;3.42;0.60;;;12.60;75.90;;;;;;5072855;28;20094;-68
2022/05/25 05:34:38;;;;;;;2.30;0.43;;;12.60;75.90;;;;;;5077796;28;20048;-70
2022/05/25 05:37:09;;;;;;;2.03;0.70;;;12.70;75.80;;;;;;5076586;28;20459;-71
2022/05/25 05:39:42;;;;;;;1.25;0.60;;;12.60;75.90;;;;;;5075438;28;20503;-74
2022/05/25 05:42:11;;;;;;;1.27;0.80;;;12.70;76.10;;;;;;5079124;28;20139;-69
2022/05/25 05:44:41;;;;;;;1.13;0.60;;;12.70;76.30;;;;;;5079770;28;20050;-71
2022/05/25 05:47:13;;;;;;;1.73;0.80;;;12.70;76.30;;;;;;5080002;28;20498;-70
2022/05/25 05:49:41;;;;;;;1.48;0.70;;;12.70;76.40;;;;;;5077789;28;20044;-71
2022/05/25 05:52:09;;;;;;;1.70;0.50;;;12.80;76.50;;;;;;5078422;28;20048;-68
2022/05/25 05:54:39;;;;;;;2.75;0.60;;;12.80;76.40;;;;;;5078228;28;20048;-70
2022/05/25 05:57:07;;;;;;;2.00;0.70;;;12.80;76.40;;;;;;5077193;28;20044;-72
2022/05/25 05:59:34;;;;;;;1.52;0.52;;;12.80;76.60;;;;;;5080170;28;20549;-70
2022/05/25 06:02:01;;;;;;;2.13;0.60;;;12.80;76.80;;;;;;5072372;28;20052;-70
2022/05/25 06:04:28;;;;;;;3.50;0.80;;;12.80;76.50;;;;;;5071527;28;20054;-69
2022/05/25 06:06:55;;;;;;;1.67;0.75;;;12.80;76.50;;;;;;5078836;28;20072;-71
2022/05/25 06:09:22;;;;;;;2.42;0.60;;;12.90;76.40;;;;;;5076909;28;20064;-70
2022/05/25 06:11:50;;;;;;;3.33;0.90;;;12.90;76.60;;;;;;5077517;28;20398;-68
2022/05/25 06:14:17;;;;;;;2.20;0.90;;;13.00;76.60;;;;;;5073354;28;20041;-72
2022/05/25 06:19:33;;;;;;;1.25;0.55;;;13.00;76.40;;;;;;5080474;28;20435;-71
2022/05/25 06:22:02;;;;;;;1.80;0.73;;;13.10;76.60;;;;;;5080501;28;20036;-70
2022/05/25 06:24:32;;;;;;;1.35;0.50;;;13.10;76.70;;;;;;5077295;28;20048;-70
2022/05/25 06:27:01;;;;;;;1.03;0.50;;;13.20;76.70;;;;;;5080908;28;20060;-72
2022/05/25 06:29:28;;;;;;;1.02;0.57;;;13.30;76.50;;;;;;5076515;28;20806;-71
2022/05/25 06:31:54;;;;;;;0.93;0.50;;;13.30;76.30;;;;;;5079068;28;20517;-71
2022/05/25 06:34:21;;;;;;;1.40;0.47;;;13.40;76.20;;;;;;5079486;28;20080;-73
2022/05/25 06:36:49;;;;;;;1.80;0.60;;;13.50;76.20;;;;;;5080114;28;20089;-70
2022/05/25 06:39:16;;;;;;;1.85;0.80;;;13.70;76.10;;;;;;5079836;28;20064;-70
2022/05/25 06:41:43;;;;;;;0.60;0.50;;;13.80;75.80;;;;;;5080999;28;20048;-71
2022/05/25 06:44:12;;;;;;;1.27;0.40;;;14.00;75.60;;;;;;5063003;28;20062;-73
2022/05/25 06:46:39;;;;;;;2.38;0.50;;;14.20;75.10;;;;;;5080734;28;20427;-70
2022/05/25 06:49:06;;;;;;;1.63;0.60;;;14.30;74.80;;;;;;5079993;28;20046;-73
2022/05/25 06:51:34;;;;;;;1.27;0.65;;;14.50;75.20;;;;;;5081339;28;20048;-70
2022/05/25 06:54:02;;;;;;;1.83;0.47;;;14.80;74.00;;;;;;5078705;28;20123;-68
2022/05/25 06:56:29;;;;;;;1.85;0.68;;;15.00;73.40;;;;;;5091169;28;20052;-71
2022/05/25 06:58:57;;;;;;;2.08;0.60;;;15.10;73.00;;;;;;5081901;28;20054;-68
2022/05/25 07:01:26;;;;;;;1.88;0.65;;;15.30;72.50;;;;;;5077287;28;20044;-70
2022/05/25 07:03:54;;;;;;;1.15;0.50;;;15.60;72.30;;;;;;5079212;28;20102;-69
2022/05/25 07:06:22;;;;;;;3.08;0.80;;;15.70;71.90;;;;;;5081485;28;20119;-70
2022/05/25 07:08:49;;;;;;;1.48;0.60;;;15.90;71.10;;;;;;5081605;28;20052;-69
2022/05/25 07:11:18;;;;;;;4.18;0.70;;;16.20;71.00;;;;;;5081958;28;20040;-67
2022/05/25 07:13:45;;;;;;;3.35;0.90;;;16.30;69.90;;;;;;5081026;28;20492;-71
2022/05/25 07:16:14;;;;;;;2.88;0.65;;;16.50;69.70;;;;;;5082702;28;20465;-71
2022/05/25 07:18:44;;;;;;;1.52;0.60;;;16.60;69.20;;;;;;5082789;28;20048;-69
2022/05/25 07:21:13;;;;;;;2.13;0.77;;;16.80;69.10;;;;;;5081012;28;20075;-70
2022/05/25 07:23:42;;;;;;;1.05;0.50;;;17.20;67.90;;;;;;5081831;28;20143;-74
2022/05/25 07:26:10;;;;;;;1.20;0.40;;;17.40;67.20;;;;;;5079683;28;20112;-70
2022/05/25 07:28:37;;;;;;;1.65;0.50;;;17.50;66.50;;;;;;5079528;28;20117;-73
2022/05/25 07:31:07;;;;;;;1.70;0.65;;;17.70;65.00;;;;;;5078901;28;20047;-70
2022/05/25 07:33:36;;;;;;;2.42;0.45;;;18.00;64.30;;;;;;5080379;28;20051;-70
2022/05/25 07:36:06;;;;;;;2.40;0.57;;;18.00;64.10;;;;;;5080837;28;20041;-69
2022/05/25 07:38:33;;;;;;;0.95;0.35;;;18.10;63.50;;;;;;5081506;28;20040;-68
2022/05/25 07:41:01;;;;;;;2.08;0.73;;;18.10;64.40;;;;;;5080935;28;20472;-72
2022/05/25 07:43:33;;;;;;;2.50;0.70;;;18.20;63.60;;;;;;5081879;28;20058;-71
2022/05/25 07:46:00;;;;;;;1.73;0.97;;;18.30;64.20;;;;;;5082436;28;20131;-74
2022/05/25 07:48:27;;;;;;;2.17;0.80;;;18.60;63.70;;;;;;5081729;28;20510;-71
2022/05/25 07:50:54;;;;;;;2.25;0.70;;;18.80;63.00;;;;;;5080713;28;20036;-68
2022/05/25 07:56:11;;;;;;;1.33;0.60;;;19.10;61.70;;;;;;5080246;28;20041;-70
2022/05/25 07:58:38;;;;;;;2.55;0.90;;;19.10;60.80;;;;;;5080122;28;20076;-69
2022/05/25 08:01:11;;;;;;;2.03;1.13;;;19.30;59.90;;;;;;5074222;28;20047;-70
2022/05/25 08:06:22;;;;;;;4.53;0.93;;;19.80;58.60;;;;;;5078670;28;20037;-69
2022/05/25 08:08:52;;;;;;;2.45;0.80;;;20.00;57.50;;;;;;5077128;28;20051;-69
2022/05/25 08:11:21;;;;;;;3.72;1.00;;;20.10;56.60;;;;;;5079305;28;20184;-70
2022/05/25 08:13:52;;;;;;;1.15;0.68;;;20.20;56.50;;;;;;5078679;28;20522;-69
2022/05/25 08:16:19;;;;;;;1.30;0.47;;;20.30;56.00;;;;;;5074474;28;20395;-69
2022/05/25 08:18:46;;;;;;;1.85;0.98;;;20.50;55.80;;;;;;5075676;28;20059;-70
2022/05/25 08:21:13;;;;;;;3.63;0.80;;;20.50;55.50;;;;;;5077515;28;20089;-69
2022/05/25 08:23:40;;;;;;;1.67;0.50;;;20.40;55.40;;;;;;5077511;28;20117;-72
2022/05/25 08:26:08;;;;;;;1.50;0.50;;;20.40;55.70;;;;;;5079380;28;20113;-70
2022/05/25 08:28:35;;;;;;;1.85;0.47;;;20.60;54.90;;;;;;5077129;28;20124;-68
2022/05/25 08:31:04;;;;;;;2.50;0.50;;;20.60;54.90;;;;;;5077160;28;20410;-71
2022/05/25 08:33:31;;;;;;;1.33;0.38;;;20.80;54.60;;;;;;5078372;28;20514;-70
2022/05/25 08:36:00;;;;;;;1.73;0.60;;;20.90;53.90;;;;;;5077868;28;21512;-72
2022/05/25 08:38:27;;;;;;;2.25;0.60;;;20.90;53.60;;;;;;5080442;28;20048;-68
2022/05/25 08:40:55;;;;;;;0.95;0.43;;;20.90;53.70;;;;;;5079822;28;20054;-70
2022/05/25 08:43:29;;;;;;;1.00;0.40;;;21.00;53.70;;;;;;5080534;28;20087;-69
2022/05/25 08:45:59;;;;;;;1.45;0.47;;;20.90;53.60;;;;;;5078960;28;20041;-68
2022/05/25 08:48:28;;;;;;;2.75;0.50;;;21.00;53.30;;;;;;5078078;28;20452;-70
2022/05/25 08:50:58;;;;;;;1.83;0.57;;;21.10;53.20;;;;;;5080590;28;20514;-72
2022/05/25 08:53:26;;;;;;;3.90;0.43;;;21.10;52.90;;;;;;5079350;28;20499;-73
2022/05/25 08:56:02;;;;;;;1.95;0.70;;;21.10;52.60;;;;;;5077301;28;20036;-73
2022/05/25 08:58:38;;;;;;;1.27;0.40;;;21.20;52.30;;;;;;5080685;28;20231;-69
2022/05/25 09:01:07;;;;;;;3.17;0.73;;;21.30;52.30;;;;;;5075230;28;20101;-71
2022/05/25 09:03:42;;;;;;;3.17;1.05;;;21.40;51.80;;;;;;5078804;28;20551;-69
2022/05/25 09:06:17;;;;;;;2.72;0.70;;;21.50;52.00;;;;;;5077981;28;20044;-73
2022/05/25 09:08:51;;;;;;;0.82;0.45;;;21.60;51.60;;;;;;5079911;28;20101;-70
2022/05/25 09:11:23;;;;;;;3.40;0.60;;;21.60;51.30;;;;;;5081142;28;20548;-70
2022/05/25 09:13:57;;;;;;;2.28;0.52;;;21.80;51.00;;;;;;5080233;28;20044;-70
2022/05/25 09:16:26;;;;;;;1.88;0.50;;;21.80;50.80;;;;;;5078264;28;20044;-71
2022/05/25 09:19:05;;;;;;;1.33;0.30;;;21.80;50.40;;;;;;5078486;28;20079;-68
2022/05/25 09:21:36;;;;;;;0.55;0.38;;;21.90;50.10;;;;;;5079578;28;20049;-71
2022/05/25 09:24:08;;;;;;;1.33;0.30;;;21.90;49.70;;;;;;5078413;28;21026;-74
2022/05/25 09:26:36;;;;;;;0.73;0.25;;;22.00;49.50;;;;;;5077710;28;20044;-70
2022/05/25 09:29:07;;;;;;;0.57;0.30;;;22.00;49.40;;;;;;5079454;28;20040;-71
2022/05/25 09:31:40;;;;;;;1.65;0.40;;;22.00;49.30;;;;;;5079177;28;20101;-69
2022/05/25 09:34:13;;;;;;;0.40;0.30;;;22.00;49.10;;;;;;5078185;28;20040;-71
2022/05/25 09:36:44;;;;;;;0.90;0.32;;;21.90;48.80;;;;;;5079636;28;20469;-73
2022/05/25 09:39:16;;;;;;;1.65;0.40;;;21.80;49.10;;;;;;5078118;28;20419;-69
2022/05/25 09:41:45;;;;;;;1.23;0.52;;;21.70;48.50;;;;;;5075395;28;20055;-74
2022/05/25 09:44:19;;;;;;;0.85;0.50;;;21.60;48.90;;;;;;5076953;28;20123;-70
2022/05/25 09:46:52;;;;;;;1.48;0.68;;;21.70;49.10;;;;;;5076822;28;20376;-71
2022/05/25 09:49:30;;;;;;;1.45;0.60;;;21.70;49.30;;;;;;5061450;28;20436;-71
2022/05/25 09:52:03;;;;;;;4.45;1.77;;;21.80;49.10;;;;;;5065348;28;20047;-72
2022/05/25 09:54:33;;;;;;;2.28;0.80;;;21.80;49.00;;;;;;5077172;28;20123;-72
2022/05/25 09:57:06;;;;;;;1.60;0.52;;;21.70;48.80;;;;;;5074834;28;20035;-73
2022/05/25 09:59:38;;;;;;;2.10;0.60;;;21.60;49.10;;;;;;5076559;28;20058;-70
2022/05/25 10:02:24;;;;;;;1.50;0.50;;;21.60;49.10;;;;;;5072316;28;20044;-70
2022/05/25 10:04:55;;;;;;;0.60;0.45;;;21.60;49.20;;;;;;5077660;28;20090;-71
2022/05/25 10:07:29;;;;;;;3.05;0.77;;;21.50;48.80;;;;;;5077194;28;20531;-70
2022/05/25 10:10:01;;;;;;;1.42;0.40;;;21.50;49.30;;;;;;5076539;28;20580;-69
2022/05/25 10:12:32;;;;;;;1.55;0.40;;;21.60;49.30;;;;;;5077391;28;20064;-70
2022/05/25 10:15:04;;;;;;;3.15;0.73;;;21.70;49.10;;;;;;5076469;28;20408;-71
2022/05/25 10:17:35;;;;;;;2.08;0.73;;;21.90;48.80;;;;;;5078584;28;20100;-71
2022/05/25 10:20:18;;;;;;;1.63;0.60;;;21.90;47.80;;;;;;5070706;28;20051;-70
2022/05/25 10:22:50;;;;;;;1.10;0.68;;;22.00;47.90;;;;;;5080975;28;20124;-70
2022/05/25 10:25:26;;;;;;;0.63;0.43;;;22.10;47.70;;;;;;5077046;28;20036;-69
2022/05/25 10:27:54;;;;;;;1.73;0.70;;;22.10;47.60;;;;;;5076244;28;20128;-68
2022/05/25 10:38:51;;;;;;;1.08;0.43;;;22.20;46.70;;;;;;5079914;28;20101;-74
2022/05/25 10:41:41;;;;;;;2.28;0.73;;;22.20;46.50;;;;;;5077376;28;20082;-73
2022/05/25 10:44:11;;;;;;;;;;;22.20;46.40;;;;;;5078506;28;20037;-70
2022/05/25 10:46:41;;;;;;;0.65;0.30;;;22.30;46.10;;;;;;5078237;28;19927;-69
2022/05/25 10:49:19;;;;;;;2.80;0.40;;;22.40;46.00;;;;;;5079024;28;20140;-74
2022/05/25 10:51:50;;;;;;;1.05;0.50;;;22.40;45.60;;;;;;5078620;28;20036;-69
2022/05/25 10:57:22;;;;;;;1.00;0.22;;;22.50;45.10;;;;;;5080552;28;20129;-70
2022/05/25 10:59:57;;;;;;;1.77;0.43;;;22.50;44.50;;;;;;5078905;28;20532;-69
2022/05/25 11:02:48;;;;;;;1.13;0.63;;;22.60;44.40;;;;;;5074722;28;20499;-74
2022/05/25 11:05:23;;;;;;;2.60;0.50;;;22.60;44.20;;;;;;5058432;28;20052;-74
2022/05/25 11:07:54;;;;;;;3.15;0.22;;;22.60;43.70;;;;;;5079082;28;20139;-72
2022/05/25 11:10:38;;;;;;;0.95;0.30;;;22.60;43.20;;;;;;5082158;28;20051;-68
2022/05/25 11:13:32;;;;;;;3.20;0.35;;;22.60;43.00;;;;;;5081716;28;20060;-73
2022/05/25 11:16:19;;;;;;;1.00;0.30;;;22.60;43.00;;;;;;5084281;28;20509;-71
2022/05/25 11:19:08;;;;;;;2.40;0.32;;;22.60;43.00;;;;;;5075814;28;20598;-70
2022/05/25 11:21:43;;;;;;;1.33;0.40;;;22.70;42.80;;;;;;5056614;28;20118;-72
2022/05/25 11:24:25;;;;;;;1.45;0.47;;;22.70;42.80;;;;;;5093160;28;20052;-74
2022/05/25 11:27:10;;;;;;;2.08;0.30;;;22.70;42.70;;;;;;5080080;28;20040;-71
2022/05/25 11:29:51;;;;;;;0.95;0.28;;;22.70;42.80;;;;;;5079131;28;20048;-70
2022/05/25 11:32:35;;;;;;;1.58;0.40;;;22.80;42.50;;;;;;5094863;28;20101;-70
2022/05/25 11:35:17;;;;;;;4.10;0.40;;;22.80;42.60;;;;;;5079290;28;20052;-73
2022/05/25 11:37:57;;;;;;;0.70;0.30;;;22.90;42.40;;;;;;5079649;28;20056;-70
2022/05/25 11:40:37;;;;;;;1.30;0.38;;;22.90;42.30;;;;;;5078261;28;20054;-70
2022/05/25 11:43:27;;;;;;;1.27;0.38;;;22.90;42.30;;;;;;5078517;28;20056;-70
2022/05/25 11:45:59;;;;;;;0.65;0.40;;;22.90;42.10;;;;;;5078049;28;20094;-71
2022/05/25 11:48:40;;;;;;;0.43;0.30;;;22.80;41.90;;;;;;5080848;28;20072;-70
2022/05/25 11:51:20;;;;;;;2.53;0.43;;;22.80;42.00;;;;;;5079239;28;20474;-73
2022/05/25 11:53:56;;;;;;;0.73;0.30;;;22.80;41.70;;;;;;5079131;28;20071;-74
2022/05/25 11:56:41;;;;;;;0.85;0.20;;;22.80;41.70;;;;;;5078244;28;20056;-70
2022/05/25 11:59:22;;;;;;;1.25;0.30;;;22.80;41.80;;;;;;5079531;28;20044;-73
2022/05/25 12:01:57;;;;;;;1.23;0.30;;;22.80;41.90;;;;;;5074808;28;20072;-68
2022/05/25 12:04:42;;;;;;;2.15;0.30;;;22.80;41.80;;;;;;5080334;28;20052;-68
2022/05/25 12:07:31;;;;;;;1.45;0.38;;;22.80;41.40;;;;;;5080645;28;20048;-70
2022/05/25 12:10:32;;;;;;;1.52;0.32;;;22.80;41.20;;;;;;5081135;28;20109;-70
2022/05/25 12:13:09;;;;;;;0.40;0.20;;;22.80;41.30;;;;;;5078481;28;20393;-71
2022/05/25 12:15:46;;;;;;;7.20;3.42;;;22.80;41.10;;;;;;5082590;28;20044;-70
2022/05/25 12:18:24;;;;;;;3.55;1.02;;;22.80;40.60;;;;;;5081078;28;20090;-70
2022/05/25 12:20:58;;;;;;;2.38;0.47;;;22.80;40.90;;;;;;5077343;28;20048;-69
2022/05/25 12:23:31;;;;;;;1.73;0.32;;;22.80;40.80;;;;;;5081256;28;20044;-70
2022/05/25 12:26:01;;;;;;;0.73;0.22;;;22.80;40.90;;;;;;5080892;28;20052;-70
2022/05/25 12:28:34;;;;;;;1.58;0.30;;;22.80;41.20;;;;;;5079287;28;20048;-75
2022/05/25 12:31:06;;;;;;;1.95;0.30;;;22.80;41.10;;;;;;5076308;28;20072;-70
2022/05/25 12:33:33;;;;;;;0.90;0.30;;;22.80;41.00;;;;;;5078312;28;20048;-69
2022/05/25 12:36:06;;;;;;;0.70;0.20;;;22.80;41.30;;;;;;5079512;28;20044;-73
2022/05/25 12:38:36;;;;;;;3.10;0.88;;;22.80;41.30;;;;;;5080114;28;20105;-70
2022/05/25 12:41:25;;;;;;;1.38;0.60;;;22.80;41.30;;;;;;5071453;28;20045;-69
2022/05/25 12:44:00;;;;;;;2.22;0.50;;;22.80;41.20;;;;;;5078694;28;20056;-69
2022/05/25 12:49:41;;;;;;;1.83;0.50;;;22.90;41.10;;;;;;5079672;28;20044;-69
2022/05/25 12:52:37;;;;;;;4.57;0.47;;;22.90;41.00;;;;;;5081082;28;20052;-74
2022/05/25 12:55:14;;;;;;;0.32;0.20;;;22.90;40.60;;;;;;5082067;28;20106;-73
2022/05/25 12:57:47;;;;;;;0.60;0.13;;;22.80;40.30;;;;;;5079520;28;20040;-72
2022/05/25 13:00:19;;;;;;;0.20;0.10;;;22.70;40.40;;;;;;5072436;28;20124;-72
2022/05/25 13:02:46;;;;;;;0.45;0.20;;;22.60;40.20;;;;;;5079761;28;20059;-69
2022/05/25 13:05:54;;;;;;;0.43;0.22;;;22.50;40.30;;;;;;5076241;28;20063;-68
2022/05/25 13:09:03;;;;;;;2.05;0.32;;;22.40;40.90;;;;;;5076106;28;20033;-69
2022/05/25 13:11:36;;;;;;;1.42;0.35;;;22.40;41.20;;;;;;4997478;28;20092;-73
2022/05/25 13:14:08;;;;;;;0.88;0.57;;;22.40;41.40;;;;;;4997844;28;20062;-69
2022/05/25 13:16:55;;;;;;;1.02;0.35;;;22.40;41.50;;;;;;5034765;28;20500;-70
2022/05/25 13:19:39;;;;;;;0.93;0.40;;;22.50;41.80;;;;;;5077034;28;20119;-70
2022/05/25 13:22:22;;;;;;;1.08;0.40;;;22.50;41.70;;;;;;5077813;28;20058;-69
2022/05/25 13:25:24;;;;;;;0.47;0.30;;;22.50;41.80;;;;;;5076137;28;20043;-69
2022/05/25 13:28:21;;;;;;;1.73;0.60;;;22.60;41.60;;;;;;5075712;28;20052;-71
2022/05/25 13:30:57;;;;;;;4.15;0.52;;;22.50;40.70;;;;;;5073264;28;20051;-68
2022/05/25 13:33:27;;;;;;;0.90;0.52;;;22.50;41.10;;;;;;5076832;28;20052;-70
2022/05/25 13:35:57;;;;;;;1.63;0.40;;;22.60;41.10;;;;;;5078116;28;20064;-69
2022/05/25 13:38:33;;;;;;;0.50;0.30;;;22.50;40.80;;;;;;5078113;28;20582;-75
2022/05/25 13:41:08;;;;;;;0.40;0.20;;;22.50;41.00;;;;;;5078600;28;20178;-70
2022/05/25 13:43:56;;;;;;;1.58;0.50;;;22.50;40.60;;;;;;5077993;28;20165;-71
2022/05/25 13:46:32;;;;;;;1.30;0.35;;;22.50;40.50;;;;;;5079278;28;20102;-74